Time;durP1;ratioP1;P1;durP2;ratioP2;P2;SDS_P1;SDS_P2;PMS_P1;PMS_P2;Temp;Humidity;BMP_temperature;BMP_pressure;BME280_temperature;BME280_humidity;BME280_pressure;Samples;Min_cycle;Max_cycle;Signal;HPM_P1;HPM_P2
2022/04/03 00:04:06;;;;;;;1.88;1.02;;;;;;;-0.94;100.00;98434.06;10346617;28;20573;-59
2022/04/03 00:09:09;;;;;;;2.70;1.23;;;;;;;-1.00;100.00;98429.09;10348587;28;20131;-57
2022/04/03 00:14:14;;;;;;;2.15;0.90;;;;;;;-1.06;100.00;98434.75;10347439;28;21007;-59
2022/04/03 00:19:17;;;;;;;1.70;0.90;;;;;;;-1.05;100.00;98438.25;10343005;28;20054;-57
2022/04/03 00:24:20;;;;;;;2.10;1.15;;;;;;;-1.13;100.00;98444.00;10345131;28;20061;-57
2022/04/03 00:42:06;;;;;;;1.83;1.15;;;;;;;-1.26;100.00;98447.34;10343083;28;20046;-59
2022/04/03 00:47:09;;;;;;;1.77;1.20;;;;;;;-1.29;100.00;98442.22;10341597;28;20053;-59
2022/04/03 00:52:12;;;;;;;2.47;1.20;;;;;;;-1.32;100.00;98454.75;10339839;28;20421;-59
2022/04/03 00:57:18;;;;;;;1.90;1.15;;;;;;;-1.38;100.00;98449.78;10328628;28;20050;-58
2022/04/03 01:02:21;;;;;;;1.80;1.02;;;;;;;-1.37;100.00;98447.09;10341271;28;20046;-58
2022/04/03 01:07:24;;;;;;;1.42;1.00;;;;;;;-1.46;100.00;98447.56;10343277;28;20558;-55
2022/04/03 01:12:29;;;;;;;2.55;1.20;;;;;;;-1.42;100.00;98449.13;10345170;28;20180;-56
2022/04/03 01:17:52;;;;;;;1.58;1.00;;;;;;;-1.48;100.00;98454.75;10344985;28;20429;-56
2022/04/03 01:22:55;;;;;;;1.20;0.98;;;;;;;-1.52;100.00;98461.13;10342472;28;20052;-59
2022/04/03 01:28:00;;;;;;;2.42;1.10;;;;;;;-1.57;100.00;98453.47;10345931;28;20038;-55
2022/04/03 01:33:03;;;;;;;1.38;1.17;;;;;;;-1.62;100.00;98456.34;10343263;28;20054;-56
2022/04/03 01:38:06;;;;;;;2.28;1.00;;;;;;;-1.62;100.00;98448.44;10342739;28;20061;-57
2022/04/03 01:43:11;;;;;;;1.20;0.90;;;;;;;-1.66;100.00;98457.44;10344925;28;20048;-54
2022/04/03 01:48:14;;;;;;;1.65;1.05;;;;;;;-1.67;100.00;98458.38;10348122;28;21389;-54
2022/04/03 01:53:18;;;;;;;2.33;1.15;;;;;;;-1.72;100.00;98460.44;10349168;28;20060;-56
2022/04/03 01:58:22;;;;;;;2.60;1.10;;;;;;;-1.78;100.00;98458.13;10351053;28;20176;-55
2022/04/03 02:03:28;;;;;;;2.55;1.30;;;;;;;-1.83;100.00;98461.00;10350023;28;20045;-55
2022/04/03 02:08:31;;;;;;;1.80;1.10;;;;;;;-1.87;100.00;98464.72;10349581;28;20061;-58
2022/04/03 02:13:36;;;;;;;1.65;1.10;;;;;;;-1.92;100.00;98459.69;10349016;28;20054;-57
2022/04/03 02:18:39;;;;;;;1.77;1.00;;;;;;;-1.99;100.00;98463.63;10350500;28;20195;-56
2022/04/03 02:23:42;;;;;;;1.92;1.20;;;;;;;-2.04;100.00;98468.28;10350519;28;20030;-55
2022/04/03 02:29:12;;;;;;;2.38;1.10;;;;;;;-2.13;100.00;98476.69;10347279;28;20050;-55
2022/04/03 02:34:15;;;;;;;3.08;1.10;;;;;;;-2.09;100.00;98470.31;10348158;28;20053;-54
2022/04/03 02:39:18;;;;;;;1.38;0.98;;;;;;;-2.13;100.00;98476.69;10351114;28;20046;-55
2022/04/03 02:44:23;;;;;;;3.13;1.30;;;;;;;-2.24;100.00;98474.63;10349545;28;20129;-57
2022/04/03 02:49:27;;;;;;;1.20;1.10;;;;;;;-2.26;100.00;98468.56;10349085;28;20136;-58
2022/04/03 02:54:32;;;;;;;2.53;1.15;;;;;;;-2.29;100.00;98473.97;10349357;28;20048;-57
2022/04/03 02:59:37;;;;;;;1.63;1.15;;;;;;;-2.35;100.00;98473.34;10328297;28;20042;-56
2022/04/03 03:04:40;;;;;;;3.85;1.30;;;;;;;-2.36;100.00;98473.44;10349237;28;20044;-56
2022/04/03 03:09:44;;;;;;;1.45;1.30;;;;;;;-2.44;100.00;98487.03;10348968;28;20054;-57
2022/04/03 03:14:49;;;;;;;2.67;1.20;;;;;;;-2.51;100.00;98485.63;10349648;28;20121;-54
2022/04/03 03:19:52;;;;;;;2.60;1.20;;;;;;;-2.55;100.00;98492.00;10349984;28;20057;-55
2022/04/03 03:24:56;;;;;;;2.83;1.30;;;;;;;-2.64;100.00;98495.94;10347674;28;20038;-55
2022/04/03 03:30:02;;;;;;;1.60;1.20;;;;;;;-2.65;100.00;98500.38;10348622;28;20045;-59
2022/04/03 03:35:07;;;;;;;1.80;1.30;;;;;;;-2.73;100.00;98492.00;10343425;28;20050;-57
2022/04/03 03:40:14;;;;;;;2.67;1.30;;;;;;;-2.82;100.00;98503.84;10332671;28;20363;-57
2022/04/03 03:45:19;;;;;;;2.75;1.35;;;;;;;-2.91;100.00;98501.66;10346723;28;20454;-56
2022/04/03 03:50:39;;;;;;;2.47;1.30;;;;;;;-2.98;100.00;98502.88;10344204;28;20422;-57
2022/04/03 03:55:44;;;;;;;3.05;1.40;;;;;;;-3.03;100.00;98512.78;10343543;28;20667;-55
2022/04/03 04:00:50;;;;;;;1.88;1.33;;;;;;;-3.06;100.00;98520.84;10343090;28;20049;-55
2022/04/03 04:05:55;;;;;;;2.65;1.58;;;;;;;-3.14;100.00;98518.56;10323949;28;20168;-58
2022/04/03 04:11:00;;;;;;;2.22;1.20;;;;;;;-3.19;100.00;98518.78;10340466;28;20054;-58
2022/04/03 04:16:10;;;;;;;2.40;1.40;;;;;;;-3.26;100.00;98534.03;10325731;28;20148;-56
2022/04/03 04:21:15;;;;;;;4.13;1.40;;;;;;;-3.30;100.00;98528.97;10345189;28;20050;-55
2022/04/03 04:26:25;;;;;;;2.90;1.58;;;;;;;-3.32;100.00;98536.09;10343403;28;20041;-58
2022/04/03 04:31:35;;;;;;;1.95;1.23;;;;;;;-3.36;100.00;98545.09;10342886;28;20062;-58
2022/04/03 04:36:39;;;;;;;1.65;1.23;;;;;;;-3.34;100.00;98545.84;10340803;28;20053;-58
2022/04/03 04:41:43;;;;;;;1.95;1.30;;;;;;;-3.35;100.00;98557.31;10346250;28;20145;-57
2022/04/03 04:46:48;;;;;;;3.47;1.30;;;;;;;-3.41;100.00;98554.03;10344874;28;20532;-58
2022/04/03 04:51:51;;;;;;;2.15;1.40;;;;;;;-3.50;100.00;98565.00;10345413;28;20072;-55
2022/04/03 04:56:55;;;;;;;2.03;1.50;;;;;;;-3.53;100.00;98569.56;10344452;28;20057;-60
2022/04/03 05:01:59;;;;;;;2.13;1.50;;;;;;;-3.57;100.00;98585.50;10344673;28;20042;-61
2022/04/03 05:07:03;;;;;;;2.38;1.35;;;;;;;-3.62;100.00;98586.63;10341815;28;20070;-60
2022/04/03 05:12:08;;;;;;;2.47;1.60;;;;;;;-3.68;100.00;98592.13;10340175;28;20123;-59
2022/04/03 05:17:13;;;;;;;3.15;1.42;;;;;;;-3.72;100.00;98587.03;10343623;28;20204;-58
2022/04/03 05:22:16;;;;;;;2.10;1.55;;;;;;;-3.75;100.00;98592.41;10346102;28;20045;-57
2022/04/03 05:27:20;;;;;;;1.70;1.40;;;;;;;-3.87;100.00;98592.94;10331342;28;20136;-59
2022/04/03 05:32:29;;;;;;;2.67;1.80;;;;;;;-3.96;100.00;98610.00;10350113;28;20049;-59
2022/04/03 05:37:37;;;;;;;2.03;1.52;;;;;;;-3.98;100.00;98608.34;10350914;28;20050;-62
2022/04/03 05:42:41;;;;;;;2.22;1.50;;;;;;;-3.96;100.00;98611.78;10347792;28;20125;-58
2022/04/03 05:47:46;;;;;;;3.92;1.90;;;;;;;-3.93;100.00;98620.41;10349035;28;20050;-57
2022/04/03 05:59:58;;;;;;;3.65;1.60;;;;;;;-3.77;100.00;98623.22;10380660;28;20030;-81
2022/04/03 06:05:03;;;;;;;2.78;1.90;;;;;;;-3.68;100.00;98634.25;10353185;28;20522;-80
2022/04/03 06:10:09;;;;;;;2.60;1.80;;;;;;;-3.62;100.00;98642.75;10307936;28;20074;-81
2022/04/03 06:15:16;;;;;;;3.88;1.70;;;;;;;-3.53;100.00;98638.03;10296459;28;20057;-81
2022/04/03 06:20:22;;;;;;;5.20;1.90;;;;;;;-3.44;100.00;98643.72;10320455;28;20038;-80
2022/04/03 06:25:25;;;;;;;2.15;1.40;;;;;;;-3.35;100.00;98653.00;10299785;28;20055;-81
2022/04/03 06:30:28;;;;;;;2.50;1.80;;;;;;;-3.23;100.00;98648.13;10308451;28;20215;-81
2022/04/03 06:35:37;;;;;;;4.93;1.70;;;;;;;-3.07;100.00;98646.50;10307906;28;20096;-81
2022/04/03 06:40:49;;;;;;;2.60;1.60;;;;;;;-2.92;100.00;98650.22;10301634;28;21364;-84
2022/04/03 06:45:57;;;;;;;3.17;1.90;;;;;;;-2.76;100.00;98654.78;10300526;28;20124;-84
2022/04/03 06:51:02;;;;;;;1.92;1.50;;;;;;;-2.61;100.00;98661.97;10317710;28;20054;-82
2022/04/03 06:56:05;;;;;;;3.00;1.50;;;;;;;-2.51;100.00;98662.38;10316916;28;20054;-84
2022/04/03 07:01:08;;;;;;;2.65;1.60;;;;;;;-2.35;100.00;98662.50;10319455;28;20061;-83
2022/04/03 07:06:13;;;;;;;3.35;1.77;;;;;;;-2.20;100.00;98667.03;10304648;23;21473;-56
2022/04/03 07:11:16;;;;;;;4.30;1.63;;;;;;;-2.04;100.00;98667.16;10283783;28;20815;-57
2022/04/03 07:16:19;;;;;;;2.50;1.52;;;;;;;-1.87;100.00;98655.75;10281940;28;20039;-58
2022/04/03 07:21:24;;;;;;;4.18;1.50;;;;;;;-1.65;100.00;98665.22;10266826;28;20051;-57
2022/04/03 07:26:27;;;;;;;2.17;1.52;;;;;;;-1.50;100.00;98662.72;10272503;28;20051;-62
2022/04/03 07:31:31;;;;;;;2.25;1.58;;;;;;;-1.29;100.00;98664.25;10285422;28;20046;-61
2022/04/03 07:36:36;;;;;;;2.38;1.50;;;;;;;-1.16;100.00;98677.66;10265490;28;20427;-57
2022/04/03 07:41:39;;;;;;;2.92;1.45;;;;;;;-0.96;100.00;98684.53;10284990;28;20070;-58
2022/04/03 07:46:43;;;;;;;2.22;1.20;;;;;;;-0.80;100.00;98687.22;10287066;28;20050;-52
2022/04/03 07:51:47;;;;;;;1.52;1.20;;;;;;;-0.58;100.00;98693.13;10284366;28;20130;-57
2022/04/03 07:56:50;;;;;;;1.65;1.20;;;;;;;-0.22;100.00;98686.72;10266595;28;20060;-59
2022/04/03 08:01:55;;;;;;;1.95;1.25;;;;;;;0.17;100.00;98680.09;10283952;28;20065;-55
2022/04/03 08:06:59;;;;;;;1.52;0.90;;;;;;;0.24;100.00;98688.50;10283622;28;20055;-53
2022/04/03 08:12:03;;;;;;;1.58;1.00;;;;;;;0.38;100.00;98685.06;10283059;28;20062;-54
2022/04/03 08:17:06;;;;;;;1.42;1.00;;;;;;;0.50;100.00;98691.44;10273004;28;20054;-58
2022/04/03 08:22:12;;;;;;;1.65;1.08;;;;;;;0.55;100.00;98692.88;10280520;28;20122;-55
2022/04/03 08:27:15;;;;;;;1.13;1.00;;;;;;;0.64;100.00;98699.44;10270065;28;20046;-53
2022/04/03 08:32:18;;;;;;;1.83;1.10;;;;;;;0.76;100.00;98695.19;10268849;28;20483;-57
2022/04/03 08:37:24;;;;;;;1.13;0.88;;;;;;;0.76;100.00;98697.84;10269784;28;20050;-56
2022/04/03 08:42:28;;;;;;;1.00;0.80;;;;;;;0.75;100.00;98701.44;10267696;28;20182;-59
2022/04/03 08:47:31;;;;;;;0.93;0.80;;;;;;;0.74;100.00;98699.75;10270006;28;20057;-58
2022/04/03 08:52:37;;;;;;;2.42;1.00;;;;;;;0.65;92.35;98706.44;10270021;28;20572;-56
2022/04/03 08:57:40;;;;;;;1.60;0.82;;;;;;;0.74;86.05;98702.41;10280654;28;20047;-53
2022/04/03 09:02:45;;;;;;;1.02;0.52;;;;;;;0.77;75.61;98695.09;10274384;28;20051;-57
2022/04/03 09:08:01;;;;;;;0.80;0.50;;;;;;;1.01;67.08;98696.34;10267827;28;20062;-57
2022/04/03 09:13:05;;;;;;;0.60;0.50;;;;;;;1.05;63.54;98695.22;10266144;28;20070;-54
2022/04/03 09:18:08;;;;;;;0.60;0.60;;;;;;;1.06;62.07;98695.09;10247477;28;20134;-57
2022/04/03 09:23:20;;;;;;;2.35;0.70;;;;;;;1.21;59.42;98688.03;10268586;28;20137;-56
2022/04/03 09:28:25;;;;;;;0.95;0.70;;;;;;;1.44;61.47;98687.50;10248595;28;20100;-58
2022/04/03 09:33:28;;;;;;;0.73;0.57;;;;;;;1.40;58.16;98689.50;10276242;28;20078;-56
2022/04/03 09:38:35;;;;;;;0.82;0.60;;;;;;;1.45;58.78;98683.91;10281722;28;20600;-57
2022/04/03 09:43:39;;;;;;;2.53;0.70;;;;;;;1.61;59.28;98689.09;10279264;28;20047;-54
2022/04/03 09:48:43;;;;;;;1.02;0.70;;;;;;;1.51;59.28;98688.84;10271637;28;20051;-55
2022/04/03 09:53:51;;;;;;;2.88;0.70;;;;;;;1.47;57.94;98682.84;10280766;28;20047;-56
2022/04/03 09:59:01;;;;;;;0.73;0.50;;;;;;;1.52;55.77;98685.25;10279966;28;20138;-54
2022/04/03 10:04:06;;;;;;;0.65;0.60;;;;;;;1.53;57.49;98685.13;10263690;28;20125;-57
2022/04/03 10:09:12;;;;;;;0.60;0.60;;;;;;;1.63;56.04;98687.19;10283426;28;20787;-54
2022/04/03 10:14:16;;;;;;;0.63;0.63;;;;;;;1.77;57.60;98681.84;10270647;28;20050;-56
2022/04/03 10:19:19;;;;;;;0.70;0.70;;;;;;;1.54;57.75;98678.88;10269345;28;20078;-54
2022/04/03 10:24:25;;;;;;;0.70;0.70;;;;;;;1.80;57.22;98675.47;10287162;28;20054;-55
2022/04/03 10:29:32;;;;;;;1.10;0.70;;;;;;;1.98;59.43;98673.44;10270113;28;20053;-58
2022/04/03 10:34:46;;;;;;;0.80;0.70;;;;;;;2.05;60.43;98665.91;10285459;28;20046;-56
2022/04/03 10:39:52;;;;;;;1.60;0.75;;;;;;;1.94;63.49;98650.69;10285505;28;20129;-51
2022/04/03 10:45:19;;;;;;;1.02;0.70;;;;;;;1.79;58.15;98664.03;10284197;28;20046;-59
2022/04/03 10:50:25;;;;;;;0.90;0.70;;;;;;;2.09;59.38;98660.28;10286959;28;20054;-56
2022/04/03 10:55:37;;;;;;;1.20;0.77;;;;;;;2.15;62.22;98662.56;10287958;28;20066;-52
2022/04/03 11:00:42;;;;;;;0.88;0.75;;;;;;;2.20;61.16;98653.41;10266821;28;20054;-53
2022/04/03 11:05:51;;;;;;;0.95;0.80;;;;;;;2.56;58.39;98649.22;10293303;28;20054;-57
2022/04/03 11:11:02;;;;;;;1.40;0.52;;;;;;;2.78;57.56;98644.13;10287517;28;20092;-53
2022/04/03 11:16:08;;;;;;;0.85;0.70;;;;;;;2.51;57.01;98646.03;10294121;28;20128;-57
2022/04/03 11:21:16;;;;;;;0.77;0.77;;;;;;;2.49;58.19;98637.31;10268389;28;20061;-56
2022/04/03 11:26:23;;;;;;;1.23;0.80;;;;;;;2.57;56.71;98638.50;10271722;28;20098;-55
2022/04/03 11:31:34;;;;;;;0.95;0.70;;;;;;;2.53;55.58;98630.81;10282115;28;20078;-56
2022/04/03 11:36:37;;;;;;;1.02;0.70;;;;;;;2.91;57.58;98622.84;10283748;28;20050;-56
2022/04/03 11:41:46;;;;;;;0.60;0.60;;;;;;;3.31;58.37;98619.16;10284172;28;20046;-58
2022/04/03 11:46:49;;;;;;;0.88;0.60;;;;;;;3.22;58.13;98618.00;10282886;28;20090;-57
2022/04/03 11:51:55;;;;;;;0.80;0.70;;;;;;;3.11;58.14;98611.75;10311384;23;20216;-59
2022/04/03 11:57:01;;;;;;;1.92;0.60;;;;;;;3.41;58.57;98597.19;10307423;28;20053;-60
2022/04/03 12:02:14;;;;;;;0.95;0.70;;;;;;;3.62;57.24;98594.75;10344890;28;21033;-58
2022/04/03 12:07:18;;;;;;;0.85;0.70;;;;;;;3.77;58.23;98587.44;10352522;28;20150;-59
2022/04/03 12:12:26;;;;;;;1.08;0.73;;;;;;;3.49;55.01;98590.34;10341129;28;20054;-60
2022/04/03 12:17:30;;;;;;;1.00;0.70;;;;;;;3.38;57.93;98584.94;10357863;28;20041;-59
2022/04/03 12:22:37;;;;;;;1.52;0.88;;;;;;;3.16;57.62;98588.28;10357864;28;20050;-59
2022/04/03 12:27:43;;;;;;;0.55;0.55;;;;;;;3.46;56.76;98584.38;10355820;28;20069;-59
2022/04/03 12:32:47;;;;;;;0.82;0.70;;;;;;;3.74;55.28;98577.00;10339656;28;20585;-59
2022/04/03 12:37:51;;;;;;;1.00;0.73;;;;;;;3.98;53.24;98559.19;10359126;28;20034;-56
2022/04/03 12:43:04;;;;;;;0.65;0.60;;;;;;;4.21;54.93;98564.56;10351096;28;20136;-59
2022/04/03 12:48:09;;;;;;;0.98;0.75;;;;;;;4.03;57.32;98571.31;10356344;28;20822;-58
2022/04/03 12:53:14;;;;;;;0.73;0.70;;;;;;;3.50;54.91;98554.75;10353055;28;20181;-59
2022/04/03 12:58:28;;;;;;;0.60;0.60;;;;;;;3.84;59.54;98556.69;10349908;28;20945;-59
2022/04/03 13:03:36;;;;;;;0.90;0.80;;;;;;;4.10;56.93;98556.53;10356915;28;20045;-59
2022/04/03 13:08:42;;;;;;;0.80;0.70;;;;;;;4.16;54.86;98542.75;10355726;28;20057;-60
2022/04/03 13:13:48;;;;;;;1.25;0.52;;;;;;;4.23;53.77;98538.66;10352432;28;20850;-59
2022/04/03 13:18:51;;;;;;;0.60;0.60;;;;;;;4.54;52.91;98527.41;10355805;28;20050;-59
2022/04/03 13:23:54;;;;;;;1.60;0.93;;;;;;;4.24;53.00;98532.34;10356962;28;20056;-59
2022/04/03 13:29:19;;;;;;;0.98;0.70;;;;;;;4.06;52.18;98526.59;10355130;28;20506;-58
2022/04/03 13:34:23;;;;;;;0.88;0.80;;;;;;;4.12;54.99;98522.63;10336245;28;20132;-59
2022/04/03 13:39:28;;;;;;;1.02;0.65;;;;;;;4.36;57.18;98519.03;10343271;28;20069;-59
2022/04/03 13:44:32;;;;;;;2.83;0.80;;;;;;;4.70;54.18;98508.38;10340796;28;20042;-62
2022/04/03 13:49:35;;;;;;;1.45;0.65;;;;;;;5.10;52.85;98510.53;10337612;28;20050;-59
2022/04/03 13:54:38;;;;;;;1.50;0.80;;;;;;;5.02;52.94;98496.91;10322313;28;20173;-60
2022/04/03 13:59:43;;;;;;;2.50;0.70;;;;;;;5.00;51.98;98494.38;10347325;28;20080;-59
2022/04/03 14:04:47;;;;;;;1.40;0.80;;;;;;;5.29;54.01;98491.16;10364269;28;21341;-61
2022/04/03 14:09:50;;;;;;;0.73;0.70;;;;;;;4.81;52.75;98491.50;10350991;28;21091;-61
2022/04/03 14:14:55;;;;;;;0.63;0.60;;;;;;;4.97;53.70;98491.94;10360222;28;20057;-58
2022/04/03 14:19:58;;;;;;;0.88;0.70;;;;;;;5.12;52.81;98478.34;10358965;28;20079;-60
2022/04/03 14:25:03;;;;;;;0.80;0.70;;;;;;;5.05;51.74;98477.97;10360369;28;20041;-60
2022/04/03 14:30:09;;;;;;;1.63;0.63;;;;;;;5.16;54.14;98469.94;10363848;28;20057;-56
2022/04/03 14:35:15;;;;;;;1.02;0.80;;;;;;;4.59;53.01;98479.84;10361864;28;20172;-60
2022/04/03 14:40:19;;;;;;;2.10;0.70;;;;;;;5.37;53.95;98470.00;10362518;28;20042;-58
2022/04/03 14:45:23;;;;;;;0.77;0.68;;;;;;;5.65;55.69;98464.19;10361785;28;20073;-60
2022/04/03 14:50:29;;;;;;;0.73;0.70;;;;;;;5.70;53.40;98467.31;10375067;28;20053;-59
2022/04/03 14:55:32;;;;;;;0.85;0.73;;;;;;;5.16;54.44;98469.94;10399478;28;20040;-60
2022/04/03 15:00:37;;;;;;;1.77;0.77;;;;;;;5.43;54.05;98473.13;10402794;28;20195;-59
2022/04/03 15:05:40;;;;;;;0.68;0.68;;;;;;;5.07;53.53;98471.53;10402565;28;20107;-59
2022/04/03 15:10:43;;;;;;;1.10;0.80;;;;;;;4.89;56.01;98465.88;10401696;28;20049;-60
2022/04/03 15:15:48;;;;;;;0.88;0.70;;;;;;;4.99;57.08;98476.66;10401187;28;20049;-60
2022/04/03 15:20:51;;;;;;;0.73;0.70;;;;;;;5.06;55.61;98469.84;10381453;28;20136;-58
2022/04/03 15:25:55;;;;;;;1.63;0.80;;;;;;;4.96;57.21;98468.06;10389429;28;20058;-58
2022/04/03 15:30:59;;;;;;;0.98;0.82;;;;;;;5.05;58.21;98459.28;10399871;28;20549;-60
2022/04/03 15:36:02;;;;;;;0.90;0.80;;;;;;;5.22;58.77;98461.44;10400245;28;20124;-60
2022/04/03 15:41:05;;;;;;;0.70;0.70;;;;;;;5.18;58.03;98459.13;10400279;28;20057;-63
2022/04/03 15:46:10;;;;;;;1.38;0.88;;;;;;;5.22;59.93;98463.25;10398317;28;20041;-60
2022/04/03 15:51:16;;;;;;;0.70;0.60;;;;;;;5.29;57.47;98474.28;10377681;28;20062;-59
2022/04/03 15:56:20;;;;;;;0.95;0.60;;;;;;;5.09;58.51;98471.44;10355081;28;20049;-60
2022/04/03 16:01:24;;;;;;;0.90;0.65;;;;;;;5.14;63.54;98465.72;10359308;28;20204;-57
2022/04/03 16:06:27;;;;;;;1.00;0.80;;;;;;;4.91;62.72;98471.94;10355780;28;20042;-61
2022/04/03 16:11:31;;;;;;;1.08;0.85;;;;;;;4.70;63.72;98469.19;10350672;28;20057;-60
2022/04/03 16:16:35;;;;;;;0.77;0.77;;;;;;;4.58;64.69;98478.19;10358403;28;20054;-61
2022/04/03 16:21:39;;;;;;;1.70;0.73;;;;;;;4.42;70.84;98470.50;10338873;28;20148;-62
2022/04/03 16:26:42;;;;;;;1.67;0.90;;;;;;;4.28;70.93;98474.28;10354563;28;20049;-62
2022/04/03 16:31:48;;;;;;;1.70;1.00;;;;;;;4.29;71.17;98468.81;10356005;28;20037;-61
2022/04/03 16:36:51;;;;;;;1.70;1.08;;;;;;;4.27;75.35;98460.09;10356038;28;20045;-62
2022/04/03 16:41:54;;;;;;;1.70;1.02;;;;;;;4.27;78.67;98457.44;10356031;28;20188;-61
2022/04/03 16:46:59;;;;;;;1.23;0.80;;;;;;;4.13;75.82;98471.00;10359655;28;20132;-63
2022/04/03 16:52:04;;;;;;;1.05;0.90;;;;;;;4.07;75.21;98466.13;10359153;28;20054;-61
2022/04/03 16:57:07;;;;;;;1.88;0.90;;;;;;;3.96;82.50;98465.13;10350740;28;20056;-60
2022/04/03 17:02:12;;;;;;;1.63;0.90;;;;;;;3.79;85.76;98470.94;10354475;28;20045;-62
2022/04/03 17:07:23;;;;;;;1.20;1.10;;;;;;;3.66;91.57;98468.31;10356527;28;20510;-61
2022/04/03 17:12:28;;;;;;;2.35;1.10;;;;;;;3.53;89.08;98466.59;10341978;28;20054;-56
2022/04/03 17:17:33;;;;;;;1.15;1.00;;;;;;;3.41;99.43;98464.84;10351292;28;20141;-58
2022/04/03 17:22:38;;;;;;;1.50;0.90;;;;;;;3.35;100.00;98455.50;10353640;28;20706;-58
2022/04/03 17:27:41;;;;;;;1.02;0.93;;;;;;;3.27;100.00;98457.06;10362662;28;20124;-60
2022/04/03 17:32:46;;;;;;;1.25;1.00;;;;;;;3.23;100.00;98459.94;10363479;28;20048;-58
2022/04/03 17:37:50;;;;;;;1.05;0.98;;;;;;;3.24;96.87;98458.13;10364666;28;20103;-59
2022/04/03 17:42:53;;;;;;;1.90;1.00;;;;;;;3.20;99.83;98467.31;10362029;28;20129;-56
2022/04/03 17:47:57;;;;;;;1.20;0.85;;;;;;;3.17;99.63;98463.06;10363580;28;20041;-60
2022/04/03 17:53:01;;;;;;;1.02;0.95;;;;;;;3.14;100.00;98457.09;10365645;28;20147;-58
2022/04/03 17:58:04;;;;;;;1.20;1.10;;;;;;;3.08;100.00;98453.94;10446822;23;20087;-82
2022/04/03 18:03:08;;;;;;;1.10;1.00;;;;;;;3.04;100.00;98460.44;10442056;28;20522;-81
2022/04/03 18:08:15;;;;;;;1.20;1.00;;;;;;;2.92;100.00;98458.69;10438403;28;20056;-81
2022/04/03 18:13:20;;;;;;;1.40;0.93;;;;;;;2.88;100.00;98467.88;10427401;28;20135;-82
2022/04/03 18:18:25;;;;;;;1.05;0.80;;;;;;;2.86;100.00;98470.63;10448108;28;20041;-81
2022/04/03 18:23:33;;;;;;;1.63;1.52;;;;;;;2.91;100.00;98473.81;10430647;28;20055;-80
2022/04/03 18:28:36;;;;;;;1.92;1.80;;;;;;;2.95;100.00;98481.56;10453241;28;20474;-80
2022/04/03 18:33:43;;;;;;;1.55;1.10;;;;;;;2.82;100.00;98486.91;10444276;28;20045;-79
2022/04/03 18:38:47;;;;;;;4.03;1.30;;;;;;;2.73;100.00;98486.63;10451622;28;20045;-79
2022/04/03 18:43:50;;;;;;;1.48;1.30;;;;;;;2.62;100.00;98497.19;10446667;28;20032;-78
2022/04/03 18:48:54;;;;;;;1.90;1.30;;;;;;;2.59;100.00;98500.91;10443853;28;20029;-80
2022/04/03 18:53:57;;;;;;;2.92;1.88;;;;;;;2.49;100.00;98504.34;10433045;28;20049;-80
2022/04/03 18:59:00;;;;;;;2.25;1.27;;;;;;;2.45;100.00;98507.19;10429962;28;20396;-81
2022/04/03 19:04:06;;;;;;;1.40;1.30;;;;;;;2.42;100.00;98503.91;10447557;28;20029;-78
2022/04/03 19:09:09;;;;;;;1.73;1.20;;;;;;;2.38;100.00;98507.72;10444306;28;20421;-81
2022/04/03 19:21:14;;;;;;;1.45;1.20;;;;;;;2.36;100.00;98515.81;10477913;23;20025;-62
2022/04/03 19:26:17;;;;;;;2.13;1.30;;;;;;;2.36;100.00;98523.81;10434945;28;20218;-61
2022/04/03 19:31:21;;;;;;;1.92;1.25;;;;;;;2.36;100.00;98521.16;10456021;28;20803;-61
2022/04/03 19:36:26;;;;;;;1.35;1.20;;;;;;;2.35;100.00;98519.44;10456844;28;20053;-61
2022/04/03 19:41:29;;;;;;;1.35;1.20;;;;;;;2.34;100.00;98522.22;10455233;28;20115;-61
2022/04/03 19:46:33;;;;;;;1.60;1.30;;;;;;;2.28;100.00;98516.34;10457458;28;20098;-60
2022/04/03 19:51:37;;;;;;;3.53;1.27;;;;;;;2.32;100.00;98509.00;10439969;28;20055;-59
2022/04/03 19:56:41;;;;;;;2.33;1.20;;;;;;;2.35;100.00;98516.78;10436879;28;20055;-61
2022/04/03 20:01:44;;;;;;;1.50;1.15;;;;;;;2.37;100.00;98514.88;10441304;28;20795;-60
2022/04/03 20:06:49;;;;;;;2.80;1.52;;;;;;;2.41;100.00;98502.22;10456567;28;20052;-61
2022/04/03 20:11:52;;;;;;;2.13;1.23;;;;;;;2.42;100.00;98502.09;10437614;28;20052;-61
2022/04/03 20:16:55;;;;;;;1.50;1.23;;;;;;;2.39;100.00;98498.81;10435617;28;20060;-60
2022/04/03 20:22:00;;;;;;;1.27;1.17;;;;;;;2.35;100.00;98498.16;10438605;28;20055;-61
2022/04/03 20:27:05;;;;;;;1.35;1.25;;;;;;;2.37;100.00;98512.22;10454734;28;20044;-55
2022/04/03 20:32:08;;;;;;;1.52;1.30;;;;;;;2.36;100.00;98501.66;10455761;28;20036;-55
2022/04/03 20:37:13;;;;;;;2.15;1.40;;;;;;;2.34;100.00;98507.09;10455219;28;20126;-57
2022/04/03 20:42:17;;;;;;;2.45;1.13;;;;;;;2.31;100.00;98513.50;10455549;28;20048;-56
2022/04/03 20:47:20;;;;;;;2.50;1.10;;;;;;;2.34;100.00;98511.59;10433674;28;20075;-58
2022/04/03 20:53:13;;;;;;;1.77;1.27;;;;;;;2.36;100.00;98512.31;10452635;28;20049;-56
2022/04/03 20:58:18;;;;;;;1.10;1.00;;;;;;;2.35;100.00;98518.59;10453693;28;21315;-58
2022/04/03 21:03:21;;;;;;;1.50;1.17;;;;;;;2.36;100.00;98522.94;10454483;28;20628;-59
2022/04/03 21:08:25;;;;;;;1.35;1.00;;;;;;;2.34;100.00;98520.41;10453296;28;20160;-60
2022/04/03 21:13:30;;;;;;;1.48;1.20;;;;;;;2.37;100.00;98514.88;10452031;28;20536;-60
2022/04/03 21:18:33;;;;;;;1.15;1.08;;;;;;;2.37;100.00;98514.88;10450572;28;20098;-62
2022/04/03 21:23:36;;;;;;;1.60;1.27;;;;;;;2.31;100.00;98510.84;10443266;28;20068;-59
2022/04/03 21:28:41;;;;;;;1.58;1.10;;;;;;;2.21;100.00;98512.44;10453296;28;20059;-61
2022/04/03 21:33:45;;;;;;;1.13;1.02;;;;;;;2.12;100.00;98513.91;10453030;28;20047;-60
2022/04/03 21:38:48;;;;;;;1.30;1.20;;;;;;;1.99;100.00;98511.25;10452277;28;20756;-60
2022/04/03 21:43:54;;;;;;;1.30;1.10;;;;;;;1.85;100.00;98501.56;10453244;28;20511;-60
2022/04/03 21:48:57;;;;;;;2.58;1.20;;;;;;;1.68;100.00;98509.81;10449679;28;20163;-60
2022/04/03 21:54:01;;;;;;;1.30;1.20;;;;;;;1.63;100.00;98507.47;10452467;28;20128;-60
2022/04/03 21:59:07;;;;;;;1.67;1.15;;;;;;;1.56;100.00;98521.25;10435359;28;20414;-58
2022/04/03 22:04:10;;;;;;;1.10;1.00;;;;;;;1.50;100.00;98514.56;10436123;28;20052;-59
2022/04/03 22:09:13;;;;;;;1.52;1.30;;;;;;;1.51;100.00;98516.25;10459965;28;20073;-59
2022/04/03 22:14:18;;;;;;;1.27;1.17;;;;;;;1.42;100.00;98520.38;10459551;28;20505;-59
2022/04/03 22:19:21;;;;;;;1.17;1.00;;;;;;;1.47;100.00;98525.38;10461201;28;20162;-61
2022/04/03 22:24:25;;;;;;;1.25;1.00;;;;;;;1.47;100.00;98520.06;10458107;28;20151;-61
2022/04/03 22:29:29;;;;;;;2.03;1.25;;;;;;;1.47;100.00;98517.41;10459960;28;20048;-62
2022/04/03 22:34:33;;;;;;;1.45;1.35;;;;;;;1.43;100.00;98515.88;10460569;28;20658;-60
2022/04/03 22:39:37;;;;;;;1.60;1.20;;;;;;;1.43;100.00;98511.44;10461158;28;20047;-60
2022/04/03 22:44:41;;;;;;;1.60;1.40;;;;;;;1.39;100.00;98509.94;10461157;28;20613;-57
2022/04/03 22:49:45;;;;;;;1.77;1.60;;;;;;;1.33;100.00;98513.00;10456474;28;20047;-59
2022/04/03 22:54:48;;;;;;;1.95;1.63;;;;;;;1.21;100.00;98502.25;10438750;28;20117;-57
2022/04/03 22:59:53;;;;;;;2.00;1.50;;;;;;;1.15;100.00;98513.25;10457694;28;20041;-62
2022/04/03 23:04:57;;;;;;;1.58;1.42;;;;;;;1.10;100.00;98510.06;10458309;28;20132;-58
2022/04/03 23:10:00;;;;;;;1.95;1.60;;;;;;;0.97;100.00;98502.00;10456575;28;20049;-60
2022/04/03 23:15:07;;;;;;;1.92;1.50;;;;;;;0.92;100.00;98509.44;10456232;28;20068;-58
2022/04/03 23:20:11;;;;;;;1.90;1.50;;;;;;;0.75;100.00;98500.75;10457703;28;20169;-60
2022/04/03 23:25:15;;;;;;;1.58;1.42;;;;;;;0.70;100.00;98499.31;10456327;28;20168;-60
2022/04/03 23:30:20;;;;;;;1.60;1.50;;;;;;;0.61;100.00;98493.66;10436910;28;20128;-60
2022/04/03 23:35:24;;;;;;;2.25;1.42;;;;;;;0.51;100.00;98497.84;10457222;28;21403;-59
2022/04/03 23:40:27;;;;;;;2.42;1.60;;;;;;;0.42;100.00;98491.31;10456948;28;20036;-61
2022/04/03 23:45:32;;;;;;;2.58;1.60;;;;;;;0.38;100.00;98492.44;10456272;28;20080;-59
2022/04/03 23:50:35;;;;;;;1.77;1.63;;;;;;;0.32;100.00;98489.31;10457269;28;20063;-59
2022/04/03 23:55:39;;;;;;;1.85;1.70;;;;;;;0.21;100.00;98479.41;10436961;28;20056;-58
